Main page
METAR-TAF:

METAR-TAF

Airports :

Ouagadougou, Burkina Faso

Ouagadougou Airport

latitude: 12-21N, longitude: 001-31W, elevation: 316 m

Current weather observation

The report was made 1 hour and 3 minutes ago, at 20:00 UTC
Wind 3 kt from the Northeast
Temperature 25°C
Humidity 18%
Pressure 1013 hPa
Visibility 10 km or more
no clouds below 1500 m and no cumulonimbus

METAR: DFFD 202000Z 05003KT CAVOK 25/M01 Q1013 NOSIG

Time: 21:03 (21:03 UTC)

Forecast

The report was made 4 hours and 3 minutes ago, at 17:00 UTC
Forecast valid from 20 at 18 UTC to 21 at 24 UTC
Wind 10 kt from the East
Visibility: 8000 m
Temporary
from 21 at 06 UTC to 21 at 10 UTC
Visibility: 3500 m
widespread dust

TAF: DFFD 201700Z 2018/2124 08010KT 8000 NSC TEMPO 2106/2110 3500 DU

Weather observations and forecasts of more than 4000 airports (METAR and TAF reports).

The available stations are represented by yellow and red dots on the map.

Hover mouse over dot to see the name of the station.

Then click to see weather observations and forecasts.

To change the map : click on the green buttons with a black cross to zoom in, on the green button with a dash to zoom out, or on the green arrows for adjacent maps.


METAR-TAF: